Main page
METAR-TAF:

METAR-TAF

Airports :

Foz do Iguaçu International Airport

Foz do Iguaçu, Paraná, Brazil

latitude: 25-31S, longitude: 054-35W, elevation: 180 m

Current weather observation

The report was made 11 minutes ago, at 22:00 UTC
Wind 6 kt from the South/Southeast
Temperature 30°C
Humidity 62%
Pressure 1008 hPa
Visibility 10 km or more
no clouds below 1500 m and no cumulonimbus

METAR: SBFI 252200Z 16006KT CAVOK 30/22 Q1008

Time: 19:11 (22:11 UTC)

Forecast

The report was made 7 hours and 11 minutes ago, at 15:00 UTC
Forecast valid from 25 at 18 UTC to 26 at 18 UTC
Wind 8 kt from the South/Southeast
Visibility 10 km or more
Few clouds at a height of 2500 ft
Few clouds at a height of 3000 ft, Towering cumulus.
Becoming
from 25 at 21 UTC to 25 at 23 UTC
Wind 5 kt from the South
Visibility 10 km or more
no clouds below 1500 m and no cumulonimbus

TAF: SBFI 251500Z 2518/2618 16008KT 9999 FEW025 FEW030TCU TX33/2518Z TN22/2608Z BECMG 2521/2523 18005KT CAVOK RMK PEO

Weather observations and forecasts of more than 4000 airports (METAR and TAF reports).

The available stations are represented by yellow and red dots on the map.

Hover mouse over dot to see the name of the station.

Then click to see weather observations and forecasts.

To change the map : click on the green buttons with a black cross to zoom in, on the green button with a dash to zoom out, or on the green arrows for adjacent maps.


METAR-TAF: